sensor_id;sensor_type;location;lat;lon;timestamp;P1;durP1;ratioP1;P2;durP2;ratioP2
79574;SDS011;69044;48.198;11.468;2023-07-16T00:00:16;5.93;;;3.17;;
79574;SDS011;69044;48.198;11.468;2023-07-16T00:02:50;7.57;;;4.07;;
79574;SDS011;69044;48.198;11.468;2023-07-16T00:05:21;6.22;;;3.67;;
79574;SDS011;69044;48.198;11.468;2023-07-16T00:07:48;6.63;;;3.75;;
79574;SDS011;69044;48.198;11.468;2023-07-16T00:10:15;7.07;;;3.63;;
79574;SDS011;69044;48.198;11.468;2023-07-16T00:12:42;7.85;;;3.42;;
79574;SDS011;69044;48.198;11.468;2023-07-16T00:15:09;8.05;;;3.88;;
79574;SDS011;69044;48.198;11.468;2023-07-16T00:17:36;4.72;;;3.60;;
79574;SDS011;69044;48.198;11.468;2023-07-16T00:20:06;5.32;;;3.42;;
79574;SDS011;69044;48.198;11.468;2023-07-16T00:22:34;6.85;;;3.80;;
79574;SDS011;69044;48.198;11.468;2023-07-16T00:25:01;6.22;;;3.58;;
79574;SDS011;69044;48.198;11.468;2023-07-16T00:27:28;5.72;;;3.63;;
79574;SDS011;69044;48.198;11.468;2023-07-16T00:29:55;7.47;;;3.75;;
79574;SDS011;69044;48.198;11.468;2023-07-16T00:32:22;5.05;;;3.42;;
79574;SDS011;69044;48.198;11.468;2023-07-16T00:34:50;5.50;;;3.47;;
79574;SDS011;69044;48.198;11.468;2023-07-16T00:37:19;5.30;;;3.25;;
79574;SDS011;69044;48.198;11.468;2023-07-16T00:39:46;6.43;;;3.70;;
79574;SDS011;69044;48.198;11.468;2023-07-16T00:42:13;5.07;;;3.35;;
79574;SDS011;69044;48.198;11.468;2023-07-16T00:44:40;5.07;;;3.55;;
79574;SDS011;69044;48.198;11.468;2023-07-16T00:47:07;5.25;;;3.45;;
79574;SDS011;69044;48.198;11.468;2023-07-16T00:49:35;4.85;;;3.42;;
79574;SDS011;69044;48.198;11.468;2023-07-16T00:52:02;5.00;;;3.35;;
79574;SDS011;69044;48.198;11.468;2023-07-16T00:54:32;6.13;;;3.67;;
79574;SDS011;69044;48.198;11.468;2023-07-16T00:56:59;6.53;;;3.90;;
79574;SDS011;69044;48.198;11.468;2023-07-16T00:59:26;5.45;;;4.00;;
79574;SDS011;69044;48.198;11.468;2023-07-16T01:01:53;7.47;;;3.97;;
79574;SDS011;69044;48.198;11.468;2023-07-16T01:04:20;6.53;;;3.95;;
79574;SDS011;69044;48.198;11.468;2023-07-16T01:06:50;7.60;;;4.45;;
79574;SDS011;69044;48.198;11.468;2023-07-16T01:09:20;7.22;;;4.32;;
79574;SDS011;69044;48.198;11.468;2023-07-16T01:11:51;5.97;;;3.50;;
79574;SDS011;69044;48.198;11.468;2023-07-16T01:14:18;6.78;;;4.40;;
79574;SDS011;69044;48.198;11.468;2023-07-16T01:16:45;5.90;;;4.40;;
79574;SDS011;69044;48.198;11.468;2023-07-16T01:19:12;6.80;;;4.05;;
79574;SDS011;69044;48.198;11.468;2023-07-16T01:21:42;7.20;;;4.65;;
79574;SDS011;69044;48.198;11.468;2023-07-16T01:24:17;5.13;;;3.58;;
79574;SDS011;69044;48.198;11.468;2023-07-16T01:27:04;8.77;;;3.60;;
79574;SDS011;69044;48.198;11.468;2023-07-16T01:29:43;7.55;;;4.32;;
79574;SDS011;69044;48.198;11.468;2023-07-16T01:32:11;5.68;;;3.80;;
79574;SDS011;69044;48.198;11.468;2023-07-16T01:34:38;6.05;;;4.05;;
79574;SDS011;69044;48.198;11.468;2023-07-16T01:37:06;5.60;;;3.90;;
79574;SDS011;69044;48.198;11.468;2023-07-16T01:39:33;4.75;;;3.70;;
79574;SDS011;69044;48.198;11.468;2023-07-16T01:42:01;7.38;;;3.97;;
79574;SDS011;69044;48.198;11.468;2023-07-16T01:44:28;7.53;;;4.70;;
79574;SDS011;69044;48.198;11.468;2023-07-16T01:47:07;6.40;;;4.00;;
79574;SDS011;69044;48.198;11.468;2023-07-16T01:49:37;7.00;;;4.00;;
79574;SDS011;69044;48.198;11.468;2023-07-16T01:52:04;7.63;;;4.15;;
79574;SDS011;69044;48.198;11.468;2023-07-16T01:54:33;7.25;;;4.20;;
79574;SDS011;69044;48.198;11.468;2023-07-16T01:57:00;6.32;;;4.22;;
79574;SDS011;69044;48.198;11.468;2023-07-16T01:59:27;7.05;;;3.72;;
79574;SDS011;69044;48.198;11.468;2023-07-16T02:01:55;7.63;;;4.20;;
79574;SDS011;69044;48.198;11.468;2023-07-16T02:04:24;6.18;;;4.00;;
79574;SDS011;69044;48.198;11.468;2023-07-16T02:06:51;6.80;;;3.90;;
79574;SDS011;69044;48.198;11.468;2023-07-16T02:09:19;9.75;;;3.90;;
79574;SDS011;69044;48.198;11.468;2023-07-16T02:11:46;8.27;;;4.05;;
79574;SDS011;69044;48.198;11.468;2023-07-16T02:14:13;6.28;;;4.25;;
79574;SDS011;69044;48.198;11.468;2023-07-16T02:16:41;7.25;;;4.25;;
79574;SDS011;69044;48.198;11.468;2023-07-16T02:19:08;5.70;;;4.28;;
79574;SDS011;69044;48.198;11.468;2023-07-16T02:21:37;6.25;;;4.78;;
79574;SDS011;69044;48.198;11.468;2023-07-16T02:24:04;6.20;;;4.10;;
79574;SDS011;69044;48.198;11.468;2023-07-16T02:26:32;7.32;;;4.57;;
79574;SDS011;69044;48.198;11.468;2023-07-16T02:28:59;7.10;;;4.50;;
79574;SDS011;69044;48.198;11.468;2023-07-16T02:31:26;7.22;;;4.40;;
79574;SDS011;69044;48.198;11.468;2023-07-16T02:33:53;7.65;;;4.72;;
79574;SDS011;69044;48.198;11.468;2023-07-16T02:36:20;5.25;;;3.95;;
79574;SDS011;69044;48.198;11.468;2023-07-16T02:38:50;7.03;;;4.35;;
79574;SDS011;69044;48.198;11.468;2023-07-16T02:41:17;7.13;;;4.13;;
79574;SDS011;69044;48.198;11.468;2023-07-16T02:43:44;6.68;;;4.35;;
79574;SDS011;69044;48.198;11.468;2023-07-16T02:46:13;4.95;;;3.85;;
79574;SDS011;69044;48.198;11.468;2023-07-16T02:48:40;7.93;;;4.50;;
79574;SDS011;69044;48.198;11.468;2023-07-16T02:51:08;6.38;;;4.18;;
79574;SDS011;69044;48.198;11.468;2023-07-16T02:53:35;5.10;;;3.88;;
79574;SDS011;69044;48.198;11.468;2023-07-16T02:56:04;5.82;;;4.13;;
79574;SDS011;69044;48.198;11.468;2023-07-16T02:58:31;4.95;;;3.90;;
79574;SDS011;69044;48.198;11.468;2023-07-16T03:00:59;6.22;;;4.40;;
79574;SDS011;69044;48.198;11.468;2023-07-16T03:03:27;7.90;;;4.30;;
79574;SDS011;69044;48.198;11.468;2023-07-16T03:05:55;6.60;;;4.13;;
79574;SDS011;69044;48.198;11.468;2023-07-16T03:08:23;6.05;;;4.18;;
79574;SDS011;69044;48.198;11.468;2023-07-16T03:10:55;6.95;;;4.07;;
79574;SDS011;69044;48.198;11.468;2023-07-16T03:13:24;6.80;;;4.45;;
79574;SDS011;69044;48.198;11.468;2023-07-16T03:15:51;6.40;;;3.83;;
79574;SDS011;69044;48.198;11.468;2023-07-16T03:18:18;7.13;;;4.15;;
79574;SDS011;69044;48.198;11.468;2023-07-16T03:20:46;6.68;;;3.92;;
79574;SDS011;69044;48.198;11.468;2023-07-16T03:23:13;7.40;;;3.47;;
79574;SDS011;69044;48.198;11.468;2023-07-16T03:25:40;6.63;;;3.70;;
79574;SDS011;69044;48.198;11.468;2023-07-16T03:28:08;7.40;;;3.70;;
79574;SDS011;69044;48.198;11.468;2023-07-16T03:30:36;5.03;;;2.83;;
79574;SDS011;69044;48.198;11.468;2023-07-16T03:33:03;4.03;;;2.72;;
79574;SDS011;69044;48.198;11.468;2023-07-16T03:35:31;5.38;;;2.67;;
79574;SDS011;69044;48.198;11.468;2023-07-16T03:37:58;3.88;;;2.80;;
79574;SDS011;69044;48.198;11.468;2023-07-16T03:40:27;4.57;;;2.55;;
79574;SDS011;69044;48.198;11.468;2023-07-16T03:42:54;4.10;;;2.38;;
79574;SDS011;69044;48.198;11.468;2023-07-16T03:45:23;4.20;;;2.60;;
79574;SDS011;69044;48.198;11.468;2023-07-16T03:47:51;4.22;;;2.60;;
79574;SDS011;69044;48.198;11.468;2023-07-16T03:50:19;4.35;;;2.40;;
79574;SDS011;69044;48.198;11.468;2023-07-16T03:52:46;4.65;;;2.78;;
79574;SDS011;69044;48.198;11.468;2023-07-16T03:55:14;4.32;;;2.55;;
79574;SDS011;69044;48.198;11.468;2023-07-16T03:57:41;5.10;;;2.58;;
79574;SDS011;69044;48.198;11.468;2023-07-16T04:00:09;5.05;;;2.60;;
79574;SDS011;69044;48.198;11.468;2023-07-16T04:02:47;4.95;;;2.88;;
79574;SDS011;69044;48.198;11.468;2023-07-16T04:05:18;4.00;;;2.42;;
79574;SDS011;69044;48.198;11.468;2023-07-16T04:07:46;3.78;;;2.50;;
79574;SDS011;69044;48.198;11.468;2023-07-16T04:10:13;3.95;;;3.10;;
79574;SDS011;69044;48.198;11.468;2023-07-16T04:12:40;7.82;;;2.70;;
79574;SDS011;69044;48.198;11.468;2023-07-16T04:15:07;3.70;;;2.40;;
79574;SDS011;69044;48.198;11.468;2023-07-16T04:17:36;3.70;;;2.42;;
79574;SDS011;69044;48.198;11.468;2023-07-16T04:20:04;5.07;;;2.65;;
79574;SDS011;69044;48.198;11.468;2023-07-16T04:22:34;7.18;;;2.90;;
79574;SDS011;69044;48.198;11.468;2023-07-16T04:25:01;7.28;;;2.90;;
79574;SDS011;69044;48.198;11.468;2023-07-16T04:27:29;5.38;;;2.60;;
79574;SDS011;69044;48.198;11.468;2023-07-16T04:29:56;3.60;;;2.30;;
79574;SDS011;69044;48.198;11.468;2023-07-16T04:32:23;5.18;;;2.42;;
79574;SDS011;69044;48.198;11.468;2023-07-16T04:34:51;2.72;;;2.03;;
79574;SDS011;69044;48.198;11.468;2023-07-16T04:37:18;4.60;;;2.78;;
79574;SDS011;69044;48.198;11.468;2023-07-16T04:39:46;4.88;;;2.10;;
79574;SDS011;69044;48.198;11.468;2023-07-16T04:42:13;3.63;;;2.28;;
79574;SDS011;69044;48.198;11.468;2023-07-16T04:44:42;4.32;;;2.47;;
79574;SDS011;69044;48.198;11.468;2023-07-16T04:47:09;4.03;;;2.50;;
79574;SDS011;69044;48.198;11.468;2023-07-16T04:49:36;3.40;;;2.30;;
79574;SDS011;69044;48.198;11.468;2023-07-16T04:52:03;5.00;;;2.80;;
79574;SDS011;69044;48.198;11.468;2023-07-16T04:57:02;3.50;;;2.20;;
79574;SDS011;69044;48.198;11.468;2023-07-16T04:59:30;3.25;;;2.13;;
79574;SDS011;69044;48.198;11.468;2023-07-16T05:01:57;2.90;;;1.95;;
79574;SDS011;69044;48.198;11.468;2023-07-16T05:04:24;3.33;;;2.10;;
79574;SDS011;69044;48.198;11.468;2023-07-16T05:06:51;3.92;;;2.30;;
79574;SDS011;69044;48.198;11.468;2023-07-16T05:09:18;2.75;;;2.00;;
79574;SDS011;69044;48.198;11.468;2023-07-16T05:11:46;2.53;;;1.90;;
79574;SDS011;69044;48.198;11.468;2023-07-16T05:14:14;3.70;;;2.40;;
79574;SDS011;69044;48.198;11.468;2023-07-16T05:16:41;3.05;;;1.90;;
79574;SDS011;69044;48.198;11.468;2023-07-16T05:19:09;3.00;;;2.08;;
79574;SDS011;69044;48.198;11.468;2023-07-16T05:21:36;3.78;;;2.08;;
79574;SDS011;69044;48.198;11.468;2023-07-16T05:24:03;3.13;;;2.03;;
79574;SDS011;69044;48.198;11.468;2023-07-16T05:26:31;2.58;;;1.80;;
79574;SDS011;69044;48.198;11.468;2023-07-16T05:28:58;4.28;;;2.15;;
79574;SDS011;69044;48.198;11.468;2023-07-16T05:31:27;3.55;;;1.80;;
79574;SDS011;69044;48.198;11.468;2023-07-16T05:33:54;2.75;;;2.10;;
79574;SDS011;69044;48.198;11.468;2023-07-16T05:36:21;2.90;;;1.95;;
79574;SDS011;69044;48.198;11.468;2023-07-16T05:38:48;2.70;;;1.88;;
79574;SDS011;69044;48.198;11.468;2023-07-16T05:41:15;3.60;;;2.08;;
79574;SDS011;69044;48.198;11.468;2023-07-16T05:43:42;4.47;;;2.83;;
79574;SDS011;69044;48.198;11.468;2023-07-16T05:46:09;4.68;;;2.50;;
79574;SDS011;69044;48.198;11.468;2023-07-16T05:48:38;3.60;;;2.15;;
79574;SDS011;69044;48.198;11.468;2023-07-16T05:51:05;3.17;;;2.10;;
79574;SDS011;69044;48.198;11.468;2023-07-16T05:53:32;2.55;;;2.10;;
79574;SDS011;69044;48.198;11.468;2023-07-16T05:55:59;3.50;;;2.22;;
79574;SDS011;69044;48.198;11.468;2023-07-16T05:58:26;3.45;;;2.40;;
79574;SDS011;69044;48.198;11.468;2023-07-16T06:00:53;3.65;;;2.45;;
79574;SDS011;69044;48.198;11.468;2023-07-16T06:03:20;3.95;;;2.28;;
79574;SDS011;69044;48.198;11.468;2023-07-16T06:05:49;3.33;;;2.30;;
79574;SDS011;69044;48.198;11.468;2023-07-16T06:08:16;3.67;;;2.40;;
79574;SDS011;69044;48.198;11.468;2023-07-16T06:10:44;3.92;;;2.42;;
79574;SDS011;69044;48.198;11.468;2023-07-16T06:13:12;5.03;;;2.58;;
79574;SDS011;69044;48.198;11.468;2023-07-16T06:15:39;3.75;;;2.55;;
79574;SDS011;69044;48.198;11.468;2023-07-16T06:18:06;4.60;;;2.80;;
79574;SDS011;69044;48.198;11.468;2023-07-16T06:20:33;3.45;;;2.22;;
79574;SDS011;69044;48.198;11.468;2023-07-16T06:23:01;3.30;;;2.10;;
79574;SDS011;69044;48.198;11.468;2023-07-16T06:25:28;4.55;;;2.47;;
79574;SDS011;69044;48.198;11.468;2023-07-16T06:27:55;4.10;;;2.60;;
79574;SDS011;69044;48.198;11.468;2023-07-16T06:30:22;3.70;;;2.70;;
79574;SDS011;69044;48.198;11.468;2023-07-16T06:32:49;3.33;;;2.42;;
79574;SDS011;69044;48.198;11.468;2023-07-16T06:35:17;3.53;;;2.58;;
79574;SDS011;69044;48.198;11.468;2023-07-16T06:37:44;3.22;;;2.30;;
79574;SDS011;69044;48.198;11.468;2023-07-16T06:40:14;4.30;;;2.65;;
79574;SDS011;69044;48.198;11.468;2023-07-16T06:42:41;4.40;;;2.50;;
79574;SDS011;69044;48.198;11.468;2023-07-16T06:45:08;2.85;;;2.00;;
79574;SDS011;69044;48.198;11.468;2023-07-16T06:47:36;3.38;;;2.20;;
79574;SDS011;69044;48.198;11.468;2023-07-16T06:50:03;4.10;;;2.45;;
79574;SDS011;69044;48.198;11.468;2023-07-16T06:52:32;4.22;;;2.45;;
79574;SDS011;69044;48.198;11.468;2023-07-16T06:54:59;3.65;;;2.35;;
79574;SDS011;69044;48.198;11.468;2023-07-16T06:57:28;4.38;;;2.25;;
79574;SDS011;69044;48.198;11.468;2023-07-16T06:59:55;3.50;;;2.40;;
79574;SDS011;69044;48.198;11.468;2023-07-16T07:02:22;3.05;;;2.22;;
79574;SDS011;69044;48.198;11.468;2023-07-16T07:04:50;3.53;;;2.30;;
79574;SDS011;69044;48.198;11.468;2023-07-16T07:07:17;4.45;;;2.10;;
79574;SDS011;69044;48.198;11.468;2023-07-16T07:09:46;3.10;;;2.10;;
79574;SDS011;69044;48.198;11.468;2023-07-16T07:12:14;3.10;;;2.03;;
79574;SDS011;69044;48.198;11.468;2023-07-16T07:14:42;3.85;;;2.10;;
79574;SDS011;69044;48.198;11.468;2023-07-16T07:17:09;2.97;;;2.13;;
79574;SDS011;69044;48.198;11.468;2023-07-16T07:19:36;2.97;;;2.13;;
79574;SDS011;69044;48.198;11.468;2023-07-16T07:22:03;3.58;;;2.05;;
79574;SDS011;69044;48.198;11.468;2023-07-16T07:24:30;2.95;;;1.88;;
79574;SDS011;69044;48.198;11.468;2023-07-16T07:26:58;3.22;;;2.22;;
79574;SDS011;69044;48.198;11.468;2023-07-16T07:29:25;3.25;;;2.00;;
79574;SDS011;69044;48.198;11.468;2023-07-16T07:31:53;2.95;;;1.92;;
79574;SDS011;69044;48.198;11.468;2023-07-16T07:34:20;4.60;;;2.15;;
79574;SDS011;69044;48.198;11.468;2023-07-16T07:36:47;3.17;;;2.15;;
79574;SDS011;69044;48.198;11.468;2023-07-16T07:39:15;3.25;;;2.03;;
79574;SDS011;69044;48.198;11.468;2023-07-16T07:41:42;3.13;;;1.90;;
79574;SDS011;69044;48.198;11.468;2023-07-16T07:44:09;2.95;;;1.90;;
79574;SDS011;69044;48.198;11.468;2023-07-16T07:46:36;2.65;;;1.75;;
79574;SDS011;69044;48.198;11.468;2023-07-16T07:49:04;3.28;;;2.00;;
79574;SDS011;69044;48.198;11.468;2023-07-16T07:51:31;4.47;;;2.03;;
79574;SDS011;69044;48.198;11.468;2023-07-16T07:53:59;3.50;;;2.00;;
79574;SDS011;69044;48.198;11.468;2023-07-16T07:58:53;3.92;;;1.92;;
79574;SDS011;69044;48.198;11.468;2023-07-16T08:01:20;2.35;;;1.50;;
79574;SDS011;69044;48.198;11.468;2023-07-16T08:03:48;2.85;;;1.67;;
79574;SDS011;69044;48.198;11.468;2023-07-16T08:06:16;3.03;;;1.90;;
79574;SDS011;69044;48.198;11.468;2023-07-16T08:08:43;2.63;;;1.77;;
79574;SDS011;69044;48.198;11.468;2023-07-16T08:11:10;3.10;;;2.30;;
79574;SDS011;69044;48.198;11.468;2023-07-16T08:13:37;3.63;;;1.80;;
79574;SDS011;69044;48.198;11.468;2023-07-16T08:16:04;3.58;;;1.90;;
79574;SDS011;69044;48.198;11.468;2023-07-16T08:18:32;2.45;;;1.85;;
79574;SDS011;69044;48.198;11.468;2023-07-16T08:20:59;2.90;;;1.90;;
79574;SDS011;69044;48.198;11.468;2023-07-16T08:23:27;3.47;;;1.90;;
79574;SDS011;69044;48.198;11.468;2023-07-16T08:25:54;3.67;;;1.83;;
79574;SDS011;69044;48.198;11.468;2023-07-16T08:28:21;2.55;;;1.77;;
79574;SDS011;69044;48.198;11.468;2023-07-16T08:30:49;3.25;;;2.03;;
79574;SDS011;69044;48.198;11.468;2023-07-16T08:33:16;3.30;;;1.83;;
79574;SDS011;69044;48.198;11.468;2023-07-16T08:35:44;3.10;;;1.90;;
79574;SDS011;69044;48.198;11.468;2023-07-16T08:38:11;3.85;;;1.90;;
79574;SDS011;69044;48.198;11.468;2023-07-16T08:40:39;2.70;;;1.90;;
79574;SDS011;69044;48.198;11.468;2023-07-16T08:43:06;3.10;;;1.88;;
79574;SDS011;69044;48.198;11.468;2023-07-16T08:45:35;2.45;;;1.60;;
79574;SDS011;69044;48.198;11.468;2023-07-16T08:48:06;3.10;;;2.10;;
79574;SDS011;69044;48.198;11.468;2023-07-16T08:50:34;3.35;;;1.90;;
79574;SDS011;69044;48.198;11.468;2023-07-16T08:53:03;4.38;;;2.00;;
79574;SDS011;69044;48.198;11.468;2023-07-16T08:55:31;18.98;;;9.65;;
79574;SDS011;69044;48.198;11.468;2023-07-16T08:58:00;3.20;;;2.33;;
79574;SDS011;69044;48.198;11.468;2023-07-16T09:00:28;4.88;;;2.10;;
79574;SDS011;69044;48.198;11.468;2023-07-16T09:02:55;2.50;;;1.88;;
79574;SDS011;69044;48.198;11.468;2023-07-16T09:05:23;3.65;;;1.90;;
79574;SDS011;69044;48.198;11.468;2023-07-16T09:07:51;5.03;;;1.92;;
79574;SDS011;69044;48.198;11.468;2023-07-16T09:10:18;3.15;;;1.95;;
79574;SDS011;69044;48.198;11.468;2023-07-16T09:12:45;2.63;;;1.73;;
79574;SDS011;69044;48.198;11.468;2023-07-16T09:15:16;3.15;;;1.98;;
79574;SDS011;69044;48.198;11.468;2023-07-16T09:17:46;2.47;;;1.75;;
79574;SDS011;69044;48.198;11.468;2023-07-16T09:20:14;2.55;;;1.60;;
79574;SDS011;69044;48.198;11.468;2023-07-16T09:22:42;3.35;;;1.75;;
79574;SDS011;69044;48.198;11.468;2023-07-16T09:25:09;2.60;;;1.77;;
79574;SDS011;69044;48.198;11.468;2023-07-16T09:27:36;2.63;;;1.70;;
79574;SDS011;69044;48.198;11.468;2023-07-16T09:30:03;2.70;;;1.70;;
79574;SDS011;69044;48.198;11.468;2023-07-16T09:32:36;3.10;;;1.98;;
79574;SDS011;69044;48.198;11.468;2023-07-16T09:35:09;3.00;;;1.83;;
79574;SDS011;69044;48.198;11.468;2023-07-16T09:37:38;2.40;;;1.60;;
79574;SDS011;69044;48.198;11.468;2023-07-16T09:40:06;3.58;;;1.77;;
79574;SDS011;69044;48.198;11.468;2023-07-16T09:42:36;2.78;;;1.70;;
79574;SDS011;69044;48.198;11.468;2023-07-16T09:45:05;3.50;;;1.90;;
79574;SDS011;69044;48.198;11.468;2023-07-16T09:47:33;2.28;;;1.58;;
79574;SDS011;69044;48.198;11.468;2023-07-16T09:50:02;2.55;;;1.60;;
79574;SDS011;69044;48.198;11.468;2023-07-16T09:52:30;3.00;;;1.77;;
79574;SDS011;69044;48.198;11.468;2023-07-16T09:55:00;3.55;;;1.90;;
79574;SDS011;69044;48.198;11.468;2023-07-16T09:57:28;2.58;;;1.75;;
79574;SDS011;69044;48.198;11.468;2023-07-16T09:59:57;2.47;;;1.75;;
79574;SDS011;69044;48.198;11.468;2023-07-16T10:02:25;2.50;;;1.70;;
79574;SDS011;69044;48.198;11.468;2023-07-16T10:04:52;2.45;;;1.88;;
79574;SDS011;69044;48.198;11.468;2023-07-16T10:07:24;3.00;;;1.90;;
79574;SDS011;69044;48.198;11.468;2023-07-16T10:09:53;2.20;;;1.60;;
79574;SDS011;69044;48.198;11.468;2023-07-16T10:12:22;2.45;;;1.60;;
79574;SDS011;69044;48.198;11.468;2023-07-16T10:14:51;2.25;;;1.42;;
79574;SDS011;69044;48.198;11.468;2023-07-16T10:17:20;2.40;;;1.70;;
79574;SDS011;69044;48.198;11.468;2023-07-16T10:19:48;2.40;;;1.70;;
79574;SDS011;69044;48.198;11.468;2023-07-16T10:22:17;2.85;;;1.58;;
79574;SDS011;69044;48.198;11.468;2023-07-16T10:24:52;2.97;;;1.70;;
79574;SDS011;69044;48.198;11.468;2023-07-16T10:27:26;2.50;;;1.88;;
79574;SDS011;69044;48.198;11.468;2023-07-16T10:29:55;2.35;;;1.70;;
79574;SDS011;69044;48.198;11.468;2023-07-16T10:32:25;3.33;;;1.95;;
79574;SDS011;69044;48.198;11.468;2023-07-16T10:34:53;4.70;;;1.73;;
79574;SDS011;69044;48.198;11.468;2023-07-16T10:37:23;2.75;;;1.63;;
79574;SDS011;69044;48.198;11.468;2023-07-16T10:39:53;2.47;;;1.80;;
79574;SDS011;69044;48.198;11.468;2023-07-16T10:42:22;3.13;;;1.75;;
79574;SDS011;69044;48.198;11.468;2023-07-16T10:44:50;4.32;;;2.72;;
79574;SDS011;69044;48.198;11.468;2023-07-16T10:47:19;3.45;;;2.20;;
79574;SDS011;69044;48.198;11.468;2023-07-16T10:49:49;2.45;;;1.83;;
79574;SDS011;69044;48.198;11.468;2023-07-16T10:52:20;3.88;;;1.92;;
79574;SDS011;69044;48.198;11.468;2023-07-16T10:54:47;2.72;;;1.80;;
79574;SDS011;69044;48.198;11.468;2023-07-16T10:57:17;3.38;;;2.00;;
79574;SDS011;69044;48.198;11.468;2023-07-16T10:59:45;2.80;;;1.85;;
79574;SDS011;69044;48.198;11.468;2023-07-16T11:02:14;3.83;;;1.85;;
79574;SDS011;69044;48.198;11.468;2023-07-16T11:04:42;2.90;;;1.95;;
79574;SDS011;69044;48.198;11.468;2023-07-16T11:07:10;2.67;;;2.00;;
79574;SDS011;69044;48.198;11.468;2023-07-16T11:09:41;3.85;;;1.88;;
79574;SDS011;69044;48.198;11.468;2023-07-16T11:12:09;2.53;;;1.90;;
79574;SDS011;69044;48.198;11.468;2023-07-16T11:14:39;2.53;;;1.73;;
79574;SDS011;69044;48.198;11.468;2023-07-16T11:17:09;2.35;;;1.70;;
79574;SDS011;69044;48.198;11.468;2023-07-16T11:19:37;2.80;;;2.00;;
79574;SDS011;69044;48.198;11.468;2023-07-16T11:22:05;3.03;;;1.90;;
79574;SDS011;69044;48.198;11.468;2023-07-16T11:24:36;2.60;;;1.85;;
79574;SDS011;69044;48.198;11.468;2023-07-16T11:27:05;2.47;;;1.80;;
79574;SDS011;69044;48.198;11.468;2023-07-16T11:29:36;4.38;;;2.40;;
79574;SDS011;69044;48.198;11.468;2023-07-16T11:32:05;3.63;;;2.17;;
79574;SDS011;69044;48.198;11.468;2023-07-16T11:34:32;2.70;;;1.92;;
79574;SDS011;69044;48.198;11.468;2023-07-16T11:37:09;2.83;;;1.90;;
79574;SDS011;69044;48.198;11.468;2023-07-16T11:39:40;2.63;;;1.70;;
79574;SDS011;69044;48.198;11.468;2023-07-16T11:42:07;4.75;;;2.05;;
79574;SDS011;69044;48.198;11.468;2023-07-16T11:45:00;3.03;;;2.00;;
79574;SDS011;69044;48.198;11.468;2023-07-16T11:47:30;2.78;;;1.80;;
79574;SDS011;69044;48.198;11.468;2023-07-16T11:49:58;3.72;;;1.90;;
79574;SDS011;69044;48.198;11.468;2023-07-16T11:52:26;4.30;;;2.00;;
79574;SDS011;69044;48.198;11.468;2023-07-16T11:54:54;5.10;;;2.10;;
79574;SDS011;69044;48.198;11.468;2023-07-16T11:57:23;3.45;;;1.90;;
79574;SDS011;69044;48.198;11.468;2023-07-16T11:59:50;3.45;;;2.25;;
79574;SDS011;69044;48.198;11.468;2023-07-16T12:02:44;3.75;;;2.17;;
79574;SDS011;69044;48.198;11.468;2023-07-16T12:05:42;3.33;;;2.00;;
79574;SDS011;69044;48.198;11.468;2023-07-16T12:08:09;2.80;;;1.90;;
79574;SDS011;69044;48.198;11.468;2023-07-16T12:10:39;2.72;;;1.92;;
79574;SDS011;69044;48.198;11.468;2023-07-16T12:13:07;2.78;;;2.00;;
79574;SDS011;69044;48.198;11.468;2023-07-16T12:15:34;2.38;;;1.98;;
79574;SDS011;69044;48.198;11.468;2023-07-16T12:18:02;3.85;;;2.20;;
79574;SDS011;69044;48.198;11.468;2023-07-16T12:20:29;2.67;;;1.98;;
79574;SDS011;69044;48.198;11.468;2023-07-16T12:22:56;2.75;;;2.00;;
79574;SDS011;69044;48.198;11.468;2023-07-16T12:25:23;3.05;;;2.20;;
79574;SDS011;69044;48.198;11.468;2023-07-16T12:27:51;2.88;;;1.98;;
79574;SDS011;69044;48.198;11.468;2023-07-16T12:30:18;2.70;;;1.90;;
79574;SDS011;69044;48.198;11.468;2023-07-16T12:32:45;2.83;;;2.10;;
79574;SDS011;69044;48.198;11.468;2023-07-16T12:35:13;7.28;;;2.25;;
79574;SDS011;69044;48.198;11.468;2023-07-16T12:37:40;3.30;;;2.10;;
79574;SDS011;69044;48.198;11.468;2023-07-16T12:40:08;3.38;;;2.22;;
79574;SDS011;69044;48.198;11.468;2023-07-16T12:42:35;3.78;;;2.03;;
79574;SDS011;69044;48.198;11.468;2023-07-16T12:45:02;3.35;;;2.10;;
79574;SDS011;69044;48.198;11.468;2023-07-16T12:47:30;6.78;;;2.22;;
79574;SDS011;69044;48.198;11.468;2023-07-16T12:49:57;3.10;;;2.03;;
79574;SDS011;69044;48.198;11.468;2023-07-16T12:52:26;4.53;;;2.30;;
79574;SDS011;69044;48.198;11.468;2023-07-16T12:54:53;2.95;;;2.00;;
79574;SDS011;69044;48.198;11.468;2023-07-16T12:57:20;2.85;;;1.90;;
79574;SDS011;69044;48.198;11.468;2023-07-16T12:59:47;4.75;;;2.05;;
79574;SDS011;69044;48.198;11.468;2023-07-16T13:02:14;2.97;;;2.10;;
79574;SDS011;69044;48.198;11.468;2023-07-16T13:04:41;4.70;;;1.90;;
79574;SDS011;69044;48.198;11.468;2023-07-16T13:07:08;3.42;;;2.13;;
79574;SDS011;69044;48.198;11.468;2023-07-16T13:09:36;4.03;;;2.20;;
79574;SDS011;69044;48.198;11.468;2023-07-16T13:12:04;2.88;;;2.00;;
79574;SDS011;69044;48.198;11.468;2023-07-16T13:14:32;4.10;;;3.28;;
79574;SDS011;69044;48.198;11.468;2023-07-16T13:16:59;3.13;;;2.30;;
79574;SDS011;69044;48.198;11.468;2023-07-16T13:21:53;3.30;;;1.95;;
79574;SDS011;69044;48.198;11.468;2023-07-16T13:24:20;4.18;;;2.03;;
79574;SDS011;69044;48.198;11.468;2023-07-16T13:26:49;4.45;;;2.20;;
79574;SDS011;69044;48.198;11.468;2023-07-16T13:29:16;5.35;;;2.13;;
79574;SDS011;69044;48.198;11.468;2023-07-16T13:31:45;3.10;;;2.17;;
79574;SDS011;69044;48.198;11.468;2023-07-16T13:34:12;2.75;;;2.10;;
79574;SDS011;69044;48.198;11.468;2023-07-16T13:36:39;3.30;;;2.10;;
79574;SDS011;69044;48.198;11.468;2023-07-16T13:39:07;3.15;;;2.03;;
79574;SDS011;69044;48.198;11.468;2023-07-16T13:41:35;3.88;;;2.00;;
79574;SDS011;69044;48.198;11.468;2023-07-16T13:44:05;2.75;;;1.90;;
79574;SDS011;69044;48.198;11.468;2023-07-16T13:46:32;3.92;;;2.20;;
79574;SDS011;69044;48.198;11.468;2023-07-16T13:48:59;3.80;;;2.13;;
79574;SDS011;69044;48.198;11.468;2023-07-16T13:51:27;2.92;;;2.00;;
79574;SDS011;69044;48.198;11.468;2023-07-16T13:53:54;3.60;;;2.05;;
79574;SDS011;69044;48.198;11.468;2023-07-16T13:56:21;3.50;;;2.03;;
79574;SDS011;69044;48.198;11.468;2023-07-16T13:58:48;5.28;;;3.30;;
79574;SDS011;69044;48.198;11.468;2023-07-16T14:03:44;3.10;;;2.10;;
79574;SDS011;69044;48.198;11.468;2023-07-16T14:06:11;4.72;;;2.42;;
79574;SDS011;69044;48.198;11.468;2023-07-16T14:08:38;3.22;;;2.38;;
79574;SDS011;69044;48.198;11.468;2023-07-16T14:11:05;3.50;;;2.20;;
79574;SDS011;69044;48.198;11.468;2023-07-16T14:13:33;3.00;;;2.20;;
79574;SDS011;69044;48.198;11.468;2023-07-16T14:16:00;3.35;;;1.95;;
79574;SDS011;69044;48.198;11.468;2023-07-16T14:18:30;3.55;;;2.08;;
79574;SDS011;69044;48.198;11.468;2023-07-16T14:20:57;3.35;;;2.10;;
79574;SDS011;69044;48.198;11.468;2023-07-16T14:23:25;3.33;;;2.10;;
79574;SDS011;69044;48.198;11.468;2023-07-16T14:25:52;2.60;;;2.10;;
79574;SDS011;69044;48.198;11.468;2023-07-16T14:28:19;3.58;;;2.30;;
79574;SDS011;69044;48.198;11.468;2023-07-16T14:30:46;3.83;;;1.98;;
79574;SDS011;69044;48.198;11.468;2023-07-16T14:33:14;3.10;;;2.20;;
79574;SDS011;69044;48.198;11.468;2023-07-16T14:35:42;2.83;;;1.90;;
79574;SDS011;69044;48.198;11.468;2023-07-16T14:38:09;2.85;;;2.00;;
79574;SDS011;69044;48.198;11.468;2023-07-16T14:40:36;3.55;;;2.00;;
79574;SDS011;69044;48.198;11.468;2023-07-16T14:43:03;2.70;;;1.95;;
79574;SDS011;69044;48.198;11.468;2023-07-16T14:45:31;3.33;;;2.00;;
79574;SDS011;69044;48.198;11.468;2023-07-16T14:47:58;2.92;;;2.00;;